createdAt,value
2023-01-09T00:08:38.389Z,16.50
2023-01-09T00:18:39.757Z,16.49
2023-01-09T00:28:41.726Z,16.48
2023-01-09T00:38:43.087Z,16.46
2023-01-09T00:48:44.586Z,16.47
2023-01-09T00:58:45.951Z,16.45
2023-01-09T01:08:47.384Z,16.41
2023-01-09T01:18:48.819Z,16.43
2023-01-09T01:28:50.203Z,16.42
2023-01-09T01:38:51.584Z,16.40
2023-01-09T01:48:57.001Z,16.40
2023-01-09T01:59:08.728Z,16.34
2023-01-09T02:09:11.250Z,16.36
2023-01-09T02:19:38.603Z,16.33
2023-01-09T02:30:05.725Z,16.32
2023-01-09T02:40:16.377Z,16.33
2023-01-09T02:50:27.700Z,16.32
2023-01-09T03:00:45.645Z,16.31
2023-01-09T03:10:52.522Z,16.29
2023-01-09T03:20:53.929Z,16.28
2023-01-09T03:30:55.567Z,16.26
2023-01-09T03:40:57.000Z,16.25
2023-01-09T03:50:58.567Z,16.23
2023-01-09T04:01:01.377Z,16.18
2023-01-09T04:11:03.376Z,16.16
2023-01-09T04:21:04.921Z,16.12
2023-01-09T04:31:06.464Z,16.07
2023-01-09T04:41:07.886Z,16.02
2023-01-09T04:51:09.263Z,15.96
2023-01-09T05:01:10.785Z,15.93
2023-01-09T05:11:12.194Z,15.90
2023-01-09T05:21:13.613Z,15.96
2023-01-09T05:31:15.030Z,16.23
2023-01-09T05:41:16.405Z,16.48
2023-01-09T05:51:17.825Z,16.75
2023-01-09T06:01:19.241Z,16.95
2023-01-09T06:11:20.681Z,17.14
2023-01-09T06:21:22.076Z,17.24
2023-01-09T06:31:24.102Z,17.26
2023-01-09T06:41:25.475Z,17.28
2023-01-09T06:51:26.991Z,17.26
2023-01-09T07:01:28.466Z,17.25
2023-01-09T07:11:30.040Z,17.25
2023-01-09T07:21:32.828Z,17.25
2023-01-09T07:31:34.432Z,17.38
2023-01-09T07:41:35.992Z,17.48
2023-01-09T07:51:42.645Z,17.48
2023-01-09T08:01:44.280Z,17.45
2023-01-09T08:11:45.931Z,17.45
2023-01-09T08:21:47.377Z,17.44
2023-01-09T08:31:48.772Z,17.49
2023-01-09T08:42:08.776Z,17.50
2023-01-09T08:52:10.197Z,17.57
2023-01-09T09:02:11.759Z,17.59
2023-01-09T09:12:13.157Z,17.61
2023-01-09T09:22:14.720Z,17.62
2023-01-09T09:32:16.264Z,17.63
2023-01-09T09:42:49.821Z,17.65
2023-01-09T09:52:52.272Z,17.69
2023-01-09T10:02:58.229Z,17.70
2023-01-09T10:13:00.135Z,17.73
2023-01-09T10:23:10.418Z,17.76
2023-01-09T10:33:27.022Z,17.76
2023-01-09T10:43:54.432Z,17.82
2023-01-09T10:53:56.153Z,17.86
2023-01-09T11:04:02.068Z,17.96
2023-01-09T11:14:31.216Z,17.95
2023-01-09T11:24:32.836Z,17.97
2023-01-09T11:34:34.642Z,18.00
2023-01-09T11:44:36.009Z,18.07
2023-01-09T11:54:37.905Z,18.11
2023-01-09T12:04:54.853Z,18.15
2023-01-09T12:15:18.535Z,18.16
2023-01-09T12:25:34.745Z,18.22
2023-01-09T12:36:00.967Z,18.27
2023-01-09T12:46:15.462Z,18.29
2023-01-09T12:56:20.224Z,18.29
2023-01-09T13:06:21.801Z,18.31
2023-01-09T13:16:42.204Z,18.34
2023-01-09T13:26:46.248Z,18.31
2023-01-09T13:36:49.672Z,18.24
2023-01-09T13:46:55.834Z,18.17
2023-01-09T13:57:17.074Z,18.10
2023-01-09T14:07:20.777Z,18.01
2023-01-09T14:17:44.609Z,17.96
2023-01-09T14:27:54.737Z,17.89
2023-01-09T14:38:04.587Z,17.79
2023-01-09T14:48:06.303Z,17.75
2023-01-09T14:58:31.568Z,17.70
2023-01-09T15:08:33.226Z,17.60
2023-01-09T15:18:42.283Z,17.57
2023-01-09T15:28:43.843Z,17.53
2023-01-09T15:38:45.251Z,17.45
2023-01-09T15:48:46.646Z,17.42
2023-01-09T15:58:48.897Z,17.35
2023-01-09T16:08:52.147Z,17.32
2023-01-09T16:18:54.268Z,17.26
2023-01-09T16:28:55.726Z,17.21
2023-01-09T16:38:57.402Z,17.19
2023-01-09T16:48:59.527Z,17.14
2023-01-09T16:59:01.072Z,17.07
2023-01-09T17:09:02.459Z,17.06
2023-01-09T17:19:04.677Z,17.01
2023-01-09T17:29:07.097Z,16.98
2023-01-09T17:39:10.241Z,16.96
2023-01-09T17:49:19.530Z,16.92
2023-01-09T17:59:20.974Z,16.88
2023-01-09T18:09:22.358Z,16.88
2023-01-09T18:19:23.891Z,16.85
2023-01-09T18:29:25.340Z,16.84
2023-01-09T18:39:27.313Z,16.82
2023-01-09T18:49:28.718Z,16.79
2023-01-09T18:59:30.245Z,16.78
2023-01-09T19:09:32.025Z,16.74
2023-01-09T19:19:33.579Z,16.69
2023-01-09T19:29:36.660Z,16.66
2023-01-09T19:39:38.332Z,16.64
2023-01-09T19:49:39.825Z,16.60
2023-01-09T19:59:43.183Z,16.56
2023-01-09T20:09:44.670Z,16.56
2023-01-09T20:19:46.109Z,16.53
2023-01-09T20:29:47.844Z,16.51
2023-01-09T20:39:52.933Z,16.45
2023-01-09T20:49:54.393Z,16.42
2023-01-09T20:59:55.765Z,16.43
2023-01-09T21:09:57.137Z,16.38
2023-01-09T21:19:58.517Z,16.35
2023-01-09T21:29:59.893Z,16.31
2023-01-09T21:40:01.526Z,16.34
2023-01-09T21:50:02.918Z,16.30
2023-01-09T22:00:04.651Z,16.26
2023-01-09T22:10:06.603Z,16.28
2023-01-09T22:20:09.370Z,16.26
2023-01-09T22:30:11.650Z,16.22
2023-01-09T22:40:13.622Z,16.23
2023-01-09T22:50:15.487Z,16.19
2023-01-09T23:00:17.301Z,16.21
2023-01-09T23:10:18.866Z,16.20
2023-01-09T23:20:20.253Z,16.20
2023-01-09T23:30:21.709Z,16.18
2023-01-09T23:40:23.084Z,16.14
2023-01-09T23:50:24.462Z,16.12
